createdAt,value
2022-09-15T00:01:11.440Z,52.15
2022-09-15T00:03:40.107Z,52.01
2022-09-15T00:06:09.276Z,51.83
2022-09-15T00:08:37.938Z,52.26
2022-09-15T00:11:10.855Z,52.46
2022-09-15T00:13:40.112Z,53.75
2022-09-15T00:16:12.491Z,53.18
2022-09-15T00:18:44.049Z,52.81
2022-09-15T00:21:14.539Z,53.86
2022-09-15T00:23:43.320Z,53.64
2022-09-15T00:26:12.583Z,53.09
2022-09-15T00:28:41.462Z,52.49
2022-09-15T00:31:11.359Z,53.04
2022-09-15T00:33:40.083Z,53.82
2022-09-15T00:36:10.299Z,53.96
2022-09-15T00:38:39.043Z,53.85
2022-09-15T00:41:08.589Z,52.95
2022-09-15T00:43:45.697Z,52.50
2022-09-15T00:46:15.269Z,52.96
2022-09-15T00:48:59.317Z,53.11
2022-09-15T00:51:33.722Z,52.82
2022-09-15T00:54:04.313Z,53.22
2022-09-15T00:56:33.837Z,52.73
2022-09-15T00:59:03.780Z,53.76
2022-09-15T01:01:32.677Z,54.25
2022-09-15T01:04:01.535Z,53.70
2022-09-15T01:06:33.129Z,53.99
2022-09-15T01:09:08.984Z,53.85
2022-09-15T01:11:37.702Z,54.23
2022-09-15T01:14:06.019Z,54.70
2022-09-15T01:16:52.826Z,55.97
2022-09-15T01:19:22.118Z,56.67
2022-09-15T01:21:59.618Z,56.94
2022-09-15T01:24:46.975Z,57.18
2022-09-15T01:27:42.826Z,56.58
2022-09-15T01:30:12.375Z,56.42
2022-09-15T01:33:02.703Z,56.79
2022-09-15T01:35:49.389Z,56.29
2022-09-15T01:38:35.065Z,55.34
2022-09-15T01:41:29.892Z,55.53
2022-09-15T01:44:05.424Z,55.25
2022-09-15T01:46:36.195Z,55.30
2022-09-15T01:49:07.439Z,55.34
2022-09-15T01:51:36.459Z,54.90
2022-09-15T01:54:06.015Z,55.60
2022-09-15T01:56:36.467Z,55.79
2022-09-15T01:59:05.169Z,55.83
2022-09-15T02:01:50.986Z,55.83
2022-09-15T02:04:32.278Z,55.62
2022-09-15T02:07:04.130Z,55.55
2022-09-15T02:09:42.853Z,55.47
2022-09-15T02:12:12.293Z,55.36
2022-09-15T02:14:51.809Z,55.41
2022-09-15T02:17:20.889Z,55.75
2022-09-15T02:20:18.487Z,55.48
2022-09-15T02:22:50.405Z,55.38
2022-09-15T02:25:22.108Z,55.19
2022-09-15T02:27:52.623Z,54.86
2022-09-15T02:30:21.330Z,55.01
2022-09-15T02:32:58.123Z,55.32
2022-09-15T02:35:28.667Z,55.69
2022-09-15T02:37:58.001Z,56.06
2022-09-15T02:40:27.824Z,56.13
2022-09-15T02:42:57.229Z,55.70
2022-09-15T02:45:25.764Z,55.55
2022-09-15T02:47:54.138Z,56.02
2022-09-15T02:50:22.422Z,56.10
2022-09-15T02:52:50.713Z,55.99
2022-09-15T02:55:19.220Z,55.65
2022-09-15T02:57:47.936Z,55.43
2022-09-15T03:00:17.277Z,55.79
2022-09-15T03:02:47.173Z,55.52
2022-09-15T03:05:16.525Z,54.67
2022-09-15T03:07:44.907Z,55.36
2022-09-15T03:10:13.606Z,55.03
2022-09-15T03:12:43.924Z,54.60
2022-09-15T03:15:13.893Z,54.06
2022-09-15T03:17:43.289Z,54.99
2022-09-15T03:20:12.515Z,54.58
2022-09-15T03:22:40.885Z,54.32
2022-09-15T03:25:10.590Z,53.55
2022-09-15T03:27:39.229Z,53.48
2022-09-15T03:30:07.967Z,53.52
2022-09-15T03:32:37.742Z,53.17
2022-09-15T03:35:06.811Z,53.22
2022-09-15T03:37:36.369Z,52.88
2022-09-15T03:40:05.160Z,53.07
2022-09-15T03:42:34.509Z,52.83
2022-09-15T03:45:03.636Z,53.47
2022-09-15T03:47:32.654Z,53.34
2022-09-15T03:50:01.971Z,54.37
2022-09-15T03:52:31.883Z,55.22
2022-09-15T03:55:00.183Z,55.12
2022-09-15T03:57:28.739Z,55.26
2022-09-15T03:59:57.001Z,55.80
2022-09-15T04:02:25.318Z,55.75
2022-09-15T04:04:53.668Z,55.45
2022-09-15T04:07:21.980Z,56.07
2022-09-15T04:09:50.253Z,56.17
2022-09-15T04:12:18.683Z,56.04
2022-09-15T04:14:47.078Z,55.73
2022-09-15T04:17:16.196Z,55.93
2022-09-15T04:19:44.546Z,55.96
2022-09-15T04:22:17.550Z,55.56
2022-09-15T04:24:48.046Z,55.20
2022-09-15T04:27:17.185Z,55.10
2022-09-15T04:29:46.139Z,55.09
2022-09-15T04:32:14.463Z,55.06
2022-09-15T04:34:42.763Z,54.80
2022-09-15T04:37:11.325Z,54.83
2022-09-15T04:39:39.638Z,55.03
2022-09-15T04:42:08.021Z,54.25
2022-09-15T04:44:36.351Z,54.09
2022-09-15T04:47:04.711Z,53.88
2022-09-15T04:49:33.914Z,53.98
2022-09-15T04:52:03.360Z,54.49
2022-09-15T04:54:35.633Z,54.05
2022-09-15T04:57:04.016Z,54.02
2022-09-15T04:59:32.494Z,54.24
2022-09-15T05:02:00.862Z,54.58
2022-09-15T05:04:29.270Z,54.30
2022-09-15T05:06:57.541Z,54.06
2022-09-15T05:09:27.788Z,53.86
2022-09-15T05:11:56.683Z,53.45
2022-09-15T05:14:25.001Z,53.77
2022-09-15T05:16:53.414Z,53.85
2022-09-15T05:21:50.958Z,53.07
2022-09-15T05:24:19.380Z,53.03
2022-09-15T05:26:47.735Z,52.98
2022-09-15T05:29:15.981Z,53.02
2022-09-15T05:31:44.313Z,52.78
2022-09-15T05:34:12.739Z,52.33
2022-09-15T05:36:41.407Z,52.41
2022-09-15T05:39:09.705Z,52.19
2022-09-15T05:41:39.004Z,52.42
2022-09-15T05:44:07.266Z,52.15
2022-09-15T05:46:35.562Z,52.19
2022-09-15T05:49:14.623Z,51.82
2022-09-15T05:51:42.943Z,52.75
2022-09-15T05:54:11.452Z,53.54
2022-09-15T05:56:39.787Z,53.55
2022-09-15T05:59:08.107Z,53.84
2022-09-15T06:01:36.605Z,53.88
2022-09-15T06:04:04.919Z,54.15
2022-09-15T06:06:33.408Z,54.77
2022-09-15T06:09:05.113Z,54.81
2022-09-15T06:11:33.829Z,54.19
2022-09-15T06:14:03.282Z,54.01
2022-09-15T06:16:33.021Z,53.86
2022-09-15T06:21:31.494Z,54.27
2022-09-15T06:24:00.907Z,54.37
2022-09-15T06:26:29.878Z,55.16
2022-09-15T06:29:00.493Z,55.02
2022-09-15T06:31:31.382Z,54.09
2022-09-15T06:33:59.779Z,53.84
2022-09-15T06:36:29.221Z,53.65
2022-09-15T06:38:58.325Z,53.70
2022-09-15T06:41:35.350Z,53.62
2022-09-15T06:44:10.929Z,53.17
2022-09-15T06:46:39.219Z,53.28
2022-09-15T06:49:08.644Z,53.05
2022-09-15T06:51:37.001Z,53.29
2022-09-15T06:54:05.889Z,53.60
2022-09-15T06:56:37.912Z,53.37
2022-09-15T06:59:07.289Z,53.75
2022-09-15T07:01:35.977Z,53.43
2022-09-15T07:04:05.551Z,53.69
2022-09-15T07:06:34.117Z,53.90
2022-09-15T07:09:02.691Z,53.78
2022-09-15T07:11:32.425Z,53.68
2022-09-15T07:14:00.824Z,53.78
2022-09-15T07:16:29.491Z,53.46
2022-09-15T07:19:00.490Z,52.86
2022-09-15T07:21:29.292Z,52.85
2022-09-15T07:23:57.809Z,52.67
2022-09-15T07:26:27.440Z,52.88
2022-09-15T07:28:57.493Z,52.77
2022-09-15T07:31:27.682Z,53.01
2022-09-15T07:33:56.023Z,52.60
2022-09-15T07:36:24.640Z,52.78
2022-09-15T07:38:53.194Z,52.36
2022-09-15T07:41:22.998Z,51.90
2022-09-15T07:43:52.325Z,51.55
2022-09-15T07:46:21.808Z,52.07
2022-09-15T07:48:51.734Z,51.70
2022-09-15T07:51:20.225Z,51.16
2022-09-15T07:53:49.853Z,51.61
2022-09-15T07:56:18.805Z,51.39
2022-09-15T07:58:47.766Z,51.35
2022-09-15T08:01:17.149Z,51.55
2022-09-15T08:03:46.563Z,52.15
2022-09-15T08:06:15.608Z,51.72
2022-09-15T08:08:44.300Z,51.51
2022-09-15T08:11:19.414Z,51.79
2022-09-15T08:13:49.585Z,51.83
2022-09-15T08:16:20.014Z,51.57
2022-09-15T08:18:48.825Z,51.58
2022-09-15T08:21:20.106Z,51.22
2022-09-15T08:23:52.878Z,50.91
2022-09-15T08:26:21.846Z,50.74
2022-09-15T08:28:50.221Z,50.65
2022-09-15T08:31:18.842Z,50.35
2022-09-15T08:33:49.205Z,50.50
2022-09-15T08:36:18.033Z,50.34
2022-09-15T08:38:46.429Z,50.74
2022-09-15T08:41:27.039Z,51.25
2022-09-15T08:44:02.388Z,50.65
2022-09-15T08:46:38.023Z,51.16
2022-09-15T08:49:10.890Z,52.36
2022-09-15T08:51:44.861Z,51.66
2022-09-15T08:54:20.024Z,51.19
2022-09-15T08:56:48.828Z,50.14
2022-09-15T08:59:18.107Z,50.39
2022-09-15T09:01:53.538Z,50.21
2022-09-15T09:04:34.168Z,50.31
2022-09-15T09:07:21.420Z,49.47
2022-09-15T09:09:53.076Z,50.05
2022-09-15T09:12:37.152Z,50.64
2022-09-15T09:15:15.893Z,50.30
2022-09-15T09:18:02.768Z,49.32
2022-09-15T09:20:49.293Z,48.85
2022-09-15T09:23:20.512Z,49.59
2022-09-15T09:25:49.949Z,49.57
2022-09-15T09:28:27.135Z,48.63
2022-09-15T09:30:58.045Z,48.84
2022-09-15T09:33:30.217Z,48.81
2022-09-15T09:35:59.847Z,49.18
2022-09-15T09:38:42.101Z,48.91
2022-09-15T09:41:25.944Z,49.40
2022-09-15T09:43:56.086Z,48.32
2022-09-15T09:46:24.541Z,47.94
2022-09-15T09:49:03.352Z,47.44
2022-09-15T09:52:02.569Z,47.67
2022-09-15T09:54:32.671Z,46.92
2022-09-15T09:57:13.251Z,47.03
2022-09-15T09:59:46.118Z,49.05
2022-09-15T10:02:19.700Z,48.31
2022-09-15T10:04:49.290Z,47.90
2022-09-15T10:07:20.079Z,48.05
2022-09-15T10:09:53.418Z,47.79
2022-09-15T10:12:32.813Z,47.41
2022-09-15T10:15:06.713Z,47.31
2022-09-15T10:17:45.742Z,48.72
2022-09-15T10:20:40.606Z,49.73
2022-09-15T10:23:21.619Z,49.53
2022-09-15T10:25:59.029Z,49.68
2022-09-15T10:28:28.434Z,48.60
2022-09-15T10:31:05.631Z,49.72
2022-09-15T10:33:38.183Z,49.01
2022-09-15T10:36:11.606Z,49.92
2022-09-15T10:38:40.090Z,51.58
2022-09-15T10:41:27.323Z,50.84
2022-09-15T10:44:02.093Z,50.47
2022-09-15T10:46:42.532Z,50.35
2022-09-15T10:49:33.471Z,50.60
2022-09-15T10:52:11.327Z,50.64
2022-09-15T10:55:09.418Z,50.58
2022-09-15T10:57:46.111Z,50.18
2022-09-15T11:00:18.912Z,49.90
2022-09-15T11:03:13.813Z,50.44
2022-09-15T11:06:00.891Z,50.53
2022-09-15T11:08:35.824Z,50.80
2022-09-15T11:11:09.042Z,49.68
2022-09-15T11:13:44.022Z,49.57
2022-09-15T11:16:49.024Z,50.03
2022-09-15T11:19:38.470Z,50.47
2022-09-15T11:22:28.716Z,49.81
2022-09-15T11:25:11.890Z,50.13
2022-09-15T11:27:43.133Z,50.10
2022-09-15T11:30:20.029Z,48.96
2022-09-15T11:33:07.377Z,47.90
2022-09-15T11:35:55.551Z,46.92
2022-09-15T11:38:37.027Z,46.04
2022-09-15T11:41:11.749Z,45.89
2022-09-15T11:43:50.405Z,45.44
2022-09-15T11:46:23.216Z,43.99
2022-09-15T11:48:59.875Z,45.29
2022-09-15T11:51:29.046Z,44.32
2022-09-15T11:54:09.401Z,43.92
2022-09-15T11:56:42.272Z,42.73
2022-09-15T11:59:17.354Z,43.81
2022-09-15T12:01:45.913Z,44.09
2022-09-15T12:04:35.505Z,41.60
2022-09-15T12:07:14.593Z,41.79
2022-09-15T12:09:43.579Z,42.01
2022-09-15T12:12:16.970Z,42.36
2022-09-15T12:14:46.778Z,43.15
2022-09-15T12:17:29.334Z,40.33
2022-09-15T12:20:06.002Z,40.59
2022-09-15T12:22:39.932Z,40.90
2022-09-15T12:25:14.536Z,40.63
2022-09-15T12:27:43.858Z,40.78
2022-09-15T12:30:31.321Z,40.83
2022-09-15T12:32:59.622Z,41.54
2022-09-15T12:35:32.121Z,40.36
2022-09-15T12:38:00.827Z,41.23
2022-09-15T12:40:34.999Z,41.74
2022-09-15T12:43:13.273Z,41.77
2022-09-15T12:45:43.410Z,43.12
2022-09-15T12:48:18.943Z,43.04
2022-09-15T12:51:01.963Z,43.29
2022-09-15T12:53:48.791Z,43.56
2022-09-15T12:56:27.639Z,42.28
2022-09-15T12:58:56.252Z,42.94
2022-09-15T13:01:24.678Z,42.41
2022-09-15T13:03:57.954Z,42.48
2022-09-15T13:06:28.858Z,41.81
2022-09-15T13:09:03.800Z,41.41
2022-09-15T13:11:38.320Z,42.02
2022-09-15T13:14:27.912Z,41.30
2022-09-15T13:17:00.057Z,41.60
2022-09-15T13:19:41.415Z,40.38
2022-09-15T13:22:09.726Z,40.45
2022-09-15T13:24:44.071Z,40.27
2022-09-15T13:27:13.524Z,41.18
2022-09-15T13:29:54.735Z,42.28
2022-09-15T13:32:28.957Z,42.23
2022-09-15T13:35:20.427Z,42.56
2022-09-15T13:38:13.963Z,38.49
2022-09-15T13:40:54.384Z,36.49
2022-09-15T13:43:31.974Z,35.35
2022-09-15T13:46:12.507Z,34.98
2022-09-15T13:48:56.049Z,34.70
2022-09-15T13:51:29.346Z,34.96
2022-09-15T13:54:01.403Z,35.00
2022-09-15T13:56:32.152Z,34.32
2022-09-15T13:59:10.304Z,34.05
2022-09-15T14:01:42.383Z,34.18
2022-09-15T14:04:13.697Z,34.80
2022-09-15T14:06:44.023Z,34.56
2022-09-15T14:09:21.552Z,34.28
2022-09-15T14:11:55.191Z,34.62
2022-09-15T14:14:26.652Z,34.40
2022-09-15T14:16:56.097Z,35.16
2022-09-15T14:19:37.688Z,35.72
2022-09-15T14:22:18.423Z,35.43
2022-09-15T14:24:47.229Z,35.22
2022-09-15T14:27:20.659Z,36.15
2022-09-15T14:29:51.128Z,35.39
2022-09-15T14:32:20.229Z,35.44
2022-09-15T14:34:48.734Z,35.75
2022-09-15T14:37:17.060Z,35.58
2022-09-15T14:39:49.378Z,35.56
2022-09-15T14:42:23.019Z,35.83
2022-09-15T14:47:41.687Z,37.03
2022-09-15T14:50:17.504Z,36.62
2022-09-15T14:52:54.922Z,36.61
2022-09-15T14:55:23.293Z,37.50
2022-09-15T14:58:12.665Z,37.39
2022-09-15T15:00:44.800Z,38.12
2022-09-15T15:03:19.541Z,38.50
2022-09-15T15:05:54.705Z,38.03
2022-09-15T15:08:46.742Z,38.42
2022-09-15T15:11:17.023Z,38.27
2022-09-15T15:13:48.370Z,39.04
2022-09-15T15:16:20.564Z,38.50
2022-09-15T15:18:51.244Z,37.20
2022-09-15T15:21:38.480Z,38.23
2022-09-15T15:24:12.897Z,38.76
2022-09-15T15:26:43.205Z,37.48
2022-09-15T15:29:30.516Z,38.91
2022-09-15T15:32:06.243Z,38.85
2022-09-15T15:34:34.651Z,38.96
2022-09-15T15:37:03.768Z,39.70
2022-09-15T15:39:32.177Z,38.70
2022-09-15T15:42:02.473Z,38.30
2022-09-15T15:44:31.382Z,38.09
2022-09-15T15:47:23.741Z,38.19
2022-09-15T15:50:12.805Z,37.83
2022-09-15T15:52:41.990Z,38.47
2022-09-15T15:58:04.537Z,38.92
2022-09-15T16:00:38.779Z,38.57
2022-09-15T16:03:07.269Z,39.31
2022-09-15T16:05:36.050Z,39.34
2022-09-15T16:08:05.936Z,40.44
2022-09-15T16:10:38.839Z,40.31
2022-09-15T16:13:07.300Z,40.18
2022-09-15T16:15:35.770Z,40.28
2022-09-15T16:18:04.173Z,41.35
2022-09-15T16:20:32.489Z,42.32
2022-09-15T16:23:01.709Z,42.50
2022-09-15T16:25:35.569Z,41.79
2022-09-15T16:28:04.217Z,42.39
2022-09-15T16:30:32.993Z,42.26
2022-09-15T16:33:02.518Z,42.39
2022-09-15T16:35:41.486Z,42.35
2022-09-15T16:38:09.910Z,41.90
2022-09-15T16:40:38.256Z,42.28
2022-09-15T16:43:10.268Z,42.58
2022-09-15T16:45:40.849Z,43.88
2022-09-15T16:48:10.111Z,44.96
2022-09-15T16:50:42.644Z,42.42
2022-09-15T16:53:16.925Z,42.05
2022-09-15T16:55:46.548Z,43.96
2022-09-15T16:58:15.585Z,42.85
2022-09-15T17:00:45.075Z,42.80
2022-09-15T17:03:17.668Z,42.43
2022-09-15T17:05:48.670Z,42.65
2022-09-15T17:08:18.423Z,42.56
2022-09-15T17:10:47.508Z,41.90
2022-09-15T17:13:17.631Z,42.35
2022-09-15T17:15:46.337Z,42.66
2022-09-15T17:18:15.582Z,43.33
2022-09-15T17:20:44.642Z,41.82
2022-09-15T17:23:34.703Z,42.64
2022-09-15T17:26:04.724Z,42.21
2022-09-15T17:28:34.125Z,41.70
2022-09-15T17:31:06.680Z,41.71
2022-09-15T17:33:35.118Z,42.17
2022-09-15T17:36:03.715Z,42.41
2022-09-15T17:38:32.215Z,42.39
2022-09-15T17:41:00.651Z,42.38
2022-09-15T17:43:29.869Z,42.94
2022-09-15T17:45:58.479Z,42.88
2022-09-15T17:48:26.833Z,43.14
2022-09-15T17:50:55.339Z,42.89
2022-09-15T17:53:26.634Z,43.39
2022-09-15T17:55:55.558Z,43.74
2022-09-15T17:58:26.240Z,43.97
2022-09-15T18:00:54.606Z,43.50
2022-09-15T18:03:27.756Z,44.40
2022-09-15T18:05:58.217Z,44.28
2022-09-15T18:08:27.545Z,44.49
2022-09-15T18:10:55.927Z,44.29
2022-09-15T18:13:26.799Z,45.24
2022-09-15T18:15:56.465Z,45.42
2022-09-15T18:18:25.992Z,45.53
2022-09-15T18:20:55.669Z,46.09
2022-09-15T18:23:25.587Z,45.52
2022-09-15T18:25:53.974Z,45.75
2022-09-15T18:28:22.219Z,45.83
2022-09-15T18:30:51.117Z,46.19
2022-09-15T18:33:24.184Z,45.88
2022-09-15T18:35:54.313Z,46.21
2022-09-15T18:38:23.123Z,45.37
2022-09-15T18:40:55.999Z,45.44
2022-09-15T18:43:25.534Z,46.14
2022-09-15T18:46:00.525Z,45.72
2022-09-15T18:48:29.139Z,45.31
2022-09-15T18:50:58.045Z,45.09
2022-09-15T18:53:26.346Z,44.45
2022-09-15T18:55:54.682Z,44.48
2022-09-15T18:58:23.678Z,44.80
2022-09-15T19:00:52.123Z,44.86
2022-09-15T19:03:20.428Z,44.91
2022-09-15T19:05:48.722Z,44.70
2022-09-15T19:08:17.083Z,44.63
2022-09-15T19:10:45.435Z,44.35
2022-09-15T19:13:15.747Z,44.96
2022-09-15T19:15:44.279Z,45.15
2022-09-15T19:18:12.657Z,45.79
2022-09-15T19:20:40.971Z,46.29
2022-09-15T19:23:10.663Z,46.22
2022-09-15T19:25:41.047Z,46.33
2022-09-15T19:28:09.525Z,46.37
2022-09-15T19:30:37.886Z,46.73
2022-09-15T19:33:06.274Z,47.23
2022-09-15T19:35:34.604Z,46.90
2022-09-15T19:38:02.941Z,47.39
2022-09-15T19:40:31.521Z,46.50
2022-09-15T19:42:59.938Z,46.16
2022-09-15T19:45:28.333Z,47.21
2022-09-15T19:47:56.651Z,47.52
2022-09-15T19:50:25.149Z,47.95
2022-09-15T19:52:55.260Z,47.81
2022-09-15T19:55:28.626Z,47.35
2022-09-15T19:57:56.944Z,47.22
2022-09-15T20:00:25.340Z,47.71
2022-09-15T20:02:53.780Z,47.93
2022-09-15T20:05:22.040Z,47.17
2022-09-15T20:07:50.459Z,45.92
2022-09-15T20:10:18.755Z,46.28
2022-09-15T20:12:47.365Z,46.26
2022-09-15T20:15:15.776Z,46.27
2022-09-15T20:17:44.192Z,46.60
2022-09-15T20:20:12.547Z,46.21
2022-09-15T20:22:40.832Z,46.19
2022-09-15T20:25:09.248Z,46.41
2022-09-15T20:27:38.142Z,46.25
2022-09-15T20:30:06.749Z,46.38
2022-09-15T20:32:35.082Z,46.15
2022-09-15T20:35:03.510Z,45.92
2022-09-15T20:37:36.683Z,45.65
2022-09-15T20:40:08.199Z,45.78
2022-09-15T20:42:37.058Z,45.81
2022-09-15T20:45:05.946Z,45.54
2022-09-15T20:47:34.213Z,45.78
2022-09-15T20:50:02.581Z,46.09
2022-09-15T20:52:34.743Z,46.85
2022-09-15T20:55:05.919Z,48.08
2022-09-15T20:57:35.204Z,48.05
2022-09-15T21:00:05.036Z,49.11
2022-09-15T21:02:33.398Z,49.04
2022-09-15T21:05:01.683Z,49.04
2022-09-15T21:07:30.095Z,49.01
2022-09-15T21:09:58.415Z,48.98
2022-09-15T21:12:27.544Z,49.30
2022-09-15T21:14:57.813Z,49.16
2022-09-15T21:17:28.853Z,49.41
2022-09-15T21:19:57.140Z,48.71
2022-09-15T21:22:25.869Z,48.86
2022-09-15T21:24:54.148Z,47.82
2022-09-15T21:27:28.750Z,47.62
2022-09-15T21:29:57.342Z,47.75
2022-09-15T21:32:25.605Z,47.64
2022-09-15T21:34:55.878Z,47.96
2022-09-15T21:37:26.815Z,48.51
2022-09-15T21:39:55.806Z,47.72
2022-09-15T21:42:25.151Z,48.89
2022-09-15T21:44:54.451Z,48.52
2022-09-15T21:47:22.812Z,47.20
2022-09-15T21:49:51.721Z,46.78
2022-09-15T21:52:20.107Z,46.98
2022-09-15T21:54:49.116Z,46.78
2022-09-15T21:57:18.199Z,48.13
2022-09-15T21:59:46.559Z,48.56
2022-09-15T22:02:15.488Z,48.35
2022-09-15T22:04:43.789Z,48.29
2022-09-15T22:07:12.390Z,48.62
2022-09-15T22:09:40.702Z,48.31
2022-09-15T22:12:08.957Z,48.41
2022-09-15T22:14:37.239Z,47.98
2022-09-15T22:17:05.657Z,49.03
2022-09-15T22:19:33.960Z,49.52
2022-09-15T22:22:02.285Z,48.99
2022-09-15T22:24:30.641Z,49.28
2022-09-15T22:26:58.939Z,48.65
2022-09-15T22:29:28.283Z,49.57
2022-09-15T22:31:56.633Z,49.52
2022-09-15T22:34:24.981Z,48.94
2022-09-15T22:36:53.265Z,47.85
2022-09-15T22:39:21.717Z,47.81
2022-09-15T22:41:55.338Z,47.24
2022-09-15T22:44:23.623Z,47.30
2022-09-15T22:46:52.184Z,47.00
2022-09-15T22:49:20.614Z,46.90
2022-09-15T22:51:48.940Z,47.96
2022-09-15T22:54:17.224Z,47.48
2022-09-15T22:56:46.181Z,47.33
2022-09-15T22:59:14.851Z,48.35
2022-09-15T23:01:43.484Z,47.92
2022-09-15T23:04:11.842Z,47.52
2022-09-15T23:06:40.179Z,47.23
2022-09-15T23:09:09.562Z,47.49
2022-09-15T23:11:43.963Z,46.99
2022-09-15T23:14:18.740Z,47.16
2022-09-15T23:16:48.652Z,47.62
2022-09-15T23:19:20.740Z,48.34
2022-09-15T23:21:50.662Z,48.02
2022-09-15T23:24:20.673Z,48.44
2022-09-15T23:26:50.768Z,47.71
2022-09-15T23:29:20.713Z,48.25
2022-09-15T23:31:50.694Z,47.49
2022-09-15T23:34:19.556Z,47.50
2022-09-15T23:36:47.860Z,47.39
2022-09-15T23:39:16.265Z,47.36
2022-09-15T23:41:44.527Z,47.38
2022-09-15T23:44:12.787Z,47.95
2022-09-15T23:46:41.179Z,48.92
2022-09-15T23:49:09.730Z,49.28
2022-09-15T23:51:37.989Z,49.20
2022-09-15T23:54:06.395Z,49.59
2022-09-15T23:56:34.686Z,49.63
2022-09-15T23:59:03.009Z,50.24
